createdAt,value
2023-03-05T00:00:47.206Z,30.20
2023-03-05T00:03:31.589Z,26.88
2023-03-05T00:06:02.931Z,25.90
2023-03-05T00:08:33.802Z,28.60
2023-03-05T00:11:05.454Z,28.40
2023-03-05T00:13:36.788Z,20.95
2023-03-05T00:16:08.913Z,25.90
2023-03-05T00:18:42.411Z,26.55
2023-03-05T00:21:21.185Z,25.80
2023-03-05T00:23:52.133Z,17.40
2023-03-05T00:26:24.040Z,23.02
2023-03-05T00:28:55.007Z,30.92
2023-03-05T00:31:27.490Z,26.42
2023-03-05T00:34:02.307Z,24.45
2023-03-05T00:36:33.418Z,22.95
2023-03-05T00:39:04.208Z,28.85
2023-03-05T00:41:35.213Z,27.88
2023-03-05T00:44:05.990Z,27.25
2023-03-05T00:46:38.687Z,29.55
2023-03-05T00:49:12.126Z,25.80
2023-03-05T00:51:43.887Z,24.52
2023-03-05T00:54:14.637Z,29.25
2023-03-05T00:56:45.891Z,27.42
2023-03-05T00:59:16.723Z,27.02
2023-03-05T01:01:48.424Z,31.63
2023-03-05T01:04:22.132Z,21.85
2023-03-05T01:06:53.662Z,18.45
2023-03-05T01:09:25.418Z,19.65
2023-03-05T01:11:57.500Z,20.95
2023-03-05T01:14:28.602Z,20.85
2023-03-05T01:17:00.923Z,28.80
2023-03-05T01:19:34.815Z,20.15
2023-03-05T01:22:06.423Z,22.58
2023-03-05T01:24:37.672Z,28.38
2023-03-05T01:27:09.275Z,16.23
2023-03-05T01:29:40.261Z,14.43
2023-03-05T01:32:11.732Z,21.35
2023-03-05T01:34:45.483Z,18.60
2023-03-05T01:37:16.965Z,23.65
2023-03-05T01:39:47.701Z,18.15
2023-03-05T01:42:19.619Z,13.63
2023-03-05T01:45:03.862Z,16.35
2023-03-05T01:47:35.257Z,13.23
2023-03-05T01:50:09.336Z,14.23
2023-03-05T01:52:42.709Z,16.70
2023-03-05T01:55:16.678Z,12.40
2023-03-05T01:57:49.671Z,13.65
2023-03-05T02:00:23.134Z,17.42
2023-03-05T02:02:54.827Z,18.88
2023-03-05T02:05:30.146Z,14.88
2023-03-05T02:08:02.288Z,15.40
2023-03-05T02:10:34.996Z,13.38
2023-03-05T02:13:08.467Z,14.50
2023-03-05T02:15:39.964Z,11.23
2023-03-05T02:18:12.417Z,16.75
2023-03-05T02:20:50.475Z,14.73
2023-03-05T02:23:25.318Z,12.95
2023-03-05T02:25:56.808Z,13.70
2023-03-05T02:28:31.409Z,12.23
2023-03-05T02:31:02.698Z,14.20
2023-03-05T02:33:34.208Z,11.70
2023-03-05T02:39:16.196Z,14.68
2023-03-05T02:41:47.820Z,11.85
2023-03-05T02:44:18.961Z,14.27
2023-03-05T02:46:50.563Z,14.07
2023-03-05T02:49:21.669Z,10.10
2023-03-05T02:51:53.203Z,13.55
2023-03-05T02:54:27.173Z,11.73
2023-03-05T02:56:58.906Z,9.15
2023-03-05T02:59:29.942Z,8.40
2023-03-05T03:02:01.283Z,15.27
2023-03-05T03:04:32.421Z,12.55
2023-03-05T03:07:03.854Z,9.73
2023-03-05T03:09:38.451Z,17.65
2023-03-05T03:12:10.108Z,14.60
2023-03-05T03:14:42.755Z,11.25
2023-03-05T03:17:15.401Z,10.93
2023-03-05T03:19:47.137Z,10.52
2023-03-05T03:22:19.000Z,13.02
2023-03-05T03:24:52.573Z,13.13
2023-03-05T03:27:23.784Z,11.32
2023-03-05T03:29:54.595Z,10.85
2023-03-05T03:32:25.421Z,11.10
2023-03-05T03:34:56.151Z,11.38
2023-03-05T03:37:27.351Z,9.65
2023-03-05T03:40:00.455Z,8.38
2023-03-05T03:42:31.430Z,11.75
2023-03-05T03:45:02.650Z,9.27
2023-03-05T03:47:33.659Z,9.45
2023-03-05T03:50:04.364Z,11.30
2023-03-05T03:52:35.369Z,13.45
2023-03-05T03:55:08.726Z,10.05
2023-03-05T03:57:40.678Z,17.23
2023-03-05T04:00:13.011Z,12.93
2023-03-05T04:02:44.339Z,12.18
2023-03-05T04:05:15.186Z,8.65
2023-03-05T04:07:46.346Z,11.25
2023-03-05T04:10:19.489Z,10.65
2023-03-05T04:12:53.620Z,11.57
2023-03-05T04:15:25.148Z,9.93
2023-03-05T04:17:56.455Z,13.93
2023-03-05T04:20:27.354Z,16.73
2023-03-05T04:22:58.705Z,11.45
2023-03-05T04:25:29.432Z,13.80
2023-03-05T04:28:03.407Z,12.27
2023-03-05T04:30:34.458Z,14.05
2023-03-05T04:33:05.821Z,13.00
2023-03-05T04:35:41.767Z,12.07
2023-03-05T04:38:13.310Z,5.82
2023-03-05T04:40:44.001Z,13.23
2023-03-05T04:43:17.968Z,9.93
2023-03-05T04:45:48.812Z,8.73
2023-03-05T04:48:20.031Z,11.60
2023-03-05T04:50:51.084Z,14.02
2023-03-05T04:53:22.393Z,9.88
2023-03-05T04:55:55.609Z,15.15
2023-03-05T04:58:30.032Z,10.32
2023-03-05T05:01:03.750Z,7.97
2023-03-05T05:03:35.375Z,14.65
2023-03-05T05:06:06.394Z,11.48
2023-03-05T05:08:38.542Z,12.57
2023-03-05T05:11:10.216Z,9.77
2023-03-05T05:13:44.461Z,8.98
2023-03-05T05:16:16.621Z,12.70
2023-03-05T05:18:48.320Z,14.02
2023-03-05T05:21:20.739Z,13.15
2023-03-05T05:24:47.678Z,14.75
2023-03-05T05:27:19.060Z,17.08
2023-03-05T05:29:52.981Z,12.50
2023-03-05T05:32:25.147Z,11.82
2023-03-05T05:34:59.571Z,12.13
2023-03-05T05:37:31.306Z,13.85
2023-03-05T05:40:05.574Z,13.98
2023-03-05T05:42:36.775Z,10.32
2023-03-05T05:45:08.256Z,9.73
2023-03-05T05:47:39.669Z,10.50
2023-03-05T05:50:10.840Z,14.88
2023-03-05T05:52:44.805Z,10.35
2023-03-05T05:55:18.107Z,12.80
2023-03-05T05:57:49.264Z,13.93
2023-03-05T06:00:20.647Z,10.00
2023-03-05T06:02:51.736Z,9.88
2023-03-05T06:05:22.749Z,9.00
2023-03-05T06:07:54.013Z,10.85
2023-03-05T06:10:27.291Z,8.75
2023-03-05T06:12:58.573Z,13.55
2023-03-05T06:15:29.710Z,14.60
2023-03-05T06:18:01.910Z,10.73
2023-03-05T06:20:32.731Z,14.05
2023-03-05T06:23:04.284Z,14.13
2023-03-05T06:25:38.232Z,11.95
2023-03-05T06:28:11.805Z,13.05
2023-03-05T06:30:42.662Z,12.07
2023-03-05T06:33:14.180Z,14.60
2023-03-05T06:35:46.411Z,18.67
2023-03-05T06:38:17.590Z,17.90
2023-03-05T06:40:53.474Z,9.75
2023-03-05T06:43:26.766Z,10.25
2023-03-05T06:46:05.085Z,11.10
2023-03-05T06:48:36.535Z,12.52
2023-03-05T06:51:07.937Z,11.00
2023-03-05T06:53:39.100Z,11.55
2023-03-05T06:56:14.182Z,11.23
2023-03-05T06:58:46.194Z,11.65
2023-03-05T07:01:17.273Z,9.48
2023-03-05T07:03:51.708Z,10.65
2023-03-05T07:06:23.064Z,13.10
2023-03-05T07:09:01.551Z,6.07
2023-03-05T07:11:35.236Z,9.02
2023-03-05T07:14:07.890Z,10.18
2023-03-05T07:16:40.454Z,10.52
2023-03-05T07:19:11.332Z,8.00
2023-03-05T07:21:43.528Z,10.90
2023-03-05T07:24:15.701Z,12.60
2023-03-05T07:26:49.139Z,10.63
2023-03-05T07:29:20.214Z,8.57
2023-03-05T07:31:51.113Z,7.57
2023-03-05T07:34:23.498Z,9.27
2023-03-05T07:36:56.353Z,12.45
2023-03-05T07:39:28.068Z,12.38
2023-03-05T07:42:01.931Z,10.68
2023-03-05T07:44:34.890Z,10.10
2023-03-05T07:47:06.105Z,11.68
2023-03-05T07:49:39.712Z,8.60
2023-03-05T07:52:12.185Z,8.32
2023-03-05T07:54:45.169Z,11.75
2023-03-05T07:57:22.198Z,9.45
2023-03-05T07:59:53.326Z,12.93
2023-03-05T08:02:34.245Z,9.25
2023-03-05T08:05:05.559Z,16.52
2023-03-05T08:07:36.338Z,9.45
2023-03-05T08:10:08.018Z,9.38
2023-03-05T08:12:41.472Z,9.05
2023-03-05T08:15:13.376Z,8.75
2023-03-05T08:17:43.876Z,12.07
2023-03-05T08:20:15.823Z,12.10
2023-03-05T08:22:46.695Z,4.90
2023-03-05T08:25:17.415Z,8.25
2023-03-05T08:27:53.341Z,10.30
2023-03-05T08:30:27.760Z,8.85
2023-03-05T08:32:58.925Z,7.13
2023-03-05T08:35:30.137Z,7.47
2023-03-05T08:38:01.113Z,7.30
2023-03-05T08:40:33.115Z,8.68
2023-03-05T08:43:07.626Z,10.68
2023-03-05T08:45:40.589Z,7.68
2023-03-05T08:48:11.135Z,4.97
2023-03-05T08:50:42.164Z,6.97
2023-03-05T08:53:13.108Z,7.65
2023-03-05T08:55:46.570Z,9.85
2023-03-05T08:58:19.944Z,7.90
2023-03-05T09:00:52.573Z,12.40
2023-03-05T09:03:23.391Z,5.60
2023-03-05T09:05:54.773Z,5.85
2023-03-05T09:08:25.716Z,8.23
2023-03-05T09:10:56.789Z,6.95
2023-03-05T09:13:30.351Z,12.15
2023-03-05T09:16:07.490Z,8.25
2023-03-05T09:18:40.754Z,6.97
2023-03-05T09:21:13.761Z,11.13
2023-03-05T09:23:45.235Z,8.05
2023-03-05T09:26:19.872Z,8.48
2023-03-05T09:28:53.843Z,6.50
2023-03-05T09:31:25.305Z,8.77
2023-03-05T09:33:56.532Z,9.68
2023-03-05T09:36:29.520Z,5.95
2023-03-05T09:39:01.405Z,7.20
2023-03-05T09:41:38.679Z,7.28
2023-03-05T09:44:18.381Z,9.48
2023-03-05T09:46:55.006Z,10.10
2023-03-05T09:49:34.015Z,8.73
2023-03-05T09:52:12.087Z,7.35
2023-03-05T09:54:48.784Z,6.75
2023-03-05T09:57:29.030Z,9.55
2023-03-05T10:00:08.993Z,5.72
2023-03-05T10:02:44.386Z,6.35
2023-03-05T10:05:23.299Z,6.45
2023-03-05T10:07:57.907Z,11.77
2023-03-05T10:10:30.162Z,7.63
2023-03-05T10:13:06.684Z,6.90
2023-03-05T10:15:44.678Z,7.15
2023-03-05T10:18:20.044Z,5.82
2023-03-05T10:20:59.863Z,7.05
2023-03-05T10:23:47.345Z,4.00
2023-03-05T10:26:25.253Z,7.63
2023-03-05T10:29:03.637Z,5.95
2023-03-05T10:31:48.247Z,6.18
2023-03-05T10:34:35.400Z,7.57
2023-03-05T10:37:18.963Z,11.20
2023-03-05T10:39:59.875Z,10.18
2023-03-05T10:42:37.940Z,5.45
2023-03-05T10:45:18.477Z,9.25
2023-03-05T10:47:54.918Z,6.88
2023-03-05T10:50:27.066Z,6.53
2023-03-05T10:53:07.312Z,9.95
2023-03-05T10:55:39.826Z,9.43
2023-03-05T10:58:15.173Z,7.65
2023-03-05T11:01:01.801Z,7.10
2023-03-05T11:06:50.996Z,7.90
2023-03-05T11:09:24.563Z,7.00
2023-03-05T11:12:14.755Z,7.45
2023-03-05T11:14:47.874Z,13.70
2023-03-05T11:17:31.514Z,9.50
2023-03-05T11:20:18.047Z,9.20
2023-03-05T11:23:05.405Z,5.20
2023-03-05T11:25:37.613Z,11.35
2023-03-05T11:28:08.933Z,7.15
2023-03-05T11:30:40.787Z,5.75
2023-03-05T11:33:13.410Z,7.65
2023-03-05T11:35:46.385Z,9.65
2023-03-05T11:38:25.013Z,6.05
2023-03-05T11:40:57.480Z,10.68
2023-03-05T11:43:29.092Z,9.05
2023-03-05T11:46:05.346Z,7.38
2023-03-05T11:55:18.238Z,6.82
2023-03-05T11:57:56.920Z,6.15
2023-03-05T12:00:38.060Z,7.47
2023-03-05T12:03:15.688Z,7.00
2023-03-05T12:05:51.651Z,5.22
2023-03-05T12:08:30.320Z,5.65
2023-03-05T12:11:10.842Z,7.53
2023-03-05T12:13:49.683Z,6.80
2023-03-05T12:16:29.712Z,6.18
2023-03-05T12:19:28.667Z,9.75
2023-03-05T12:22:01.126Z,7.78
2023-03-05T12:24:42.326Z,4.55
2023-03-05T12:27:19.762Z,8.07
2023-03-05T12:29:54.824Z,7.82
2023-03-05T12:33:11.102Z,5.28
2023-03-05T12:35:44.253Z,4.50
2023-03-05T12:38:32.469Z,8.43
2023-03-05T12:41:46.587Z,8.05
2023-03-05T12:44:24.507Z,6.50
2023-03-05T12:47:23.818Z,8.88
2023-03-05T12:49:56.875Z,8.98
2023-03-05T12:52:35.679Z,7.85
2023-03-05T12:55:25.896Z,6.22
2023-03-05T12:58:04.271Z,9.27
2023-03-05T13:03:42.490Z,8.73
2023-03-05T13:06:26.310Z,7.75
2023-03-05T13:09:01.789Z,8.65
2023-03-05T13:11:34.671Z,6.55
2023-03-05T13:14:05.609Z,5.75
2023-03-05T13:16:41.216Z,7.47
2023-03-05T13:19:20.709Z,8.13
2023-03-05T13:22:00.196Z,12.35
2023-03-05T13:32:28.916Z,8.15
2023-03-05T13:35:03.224Z,7.55
2023-03-05T13:37:37.718Z,9.85
2023-03-05T13:40:24.029Z,8.88
2023-03-05T13:42:57.074Z,10.27
2023-03-05T13:45:32.232Z,9.98
2023-03-05T13:48:10.624Z,6.10
2023-03-05T13:50:43.768Z,5.15
2023-03-05T13:53:19.601Z,6.25
2023-03-05T13:55:53.295Z,9.90
2023-03-05T13:58:47.744Z,7.90
2023-03-05T14:01:31.064Z,6.10
2023-03-05T14:04:10.930Z,9.48
2023-03-05T14:06:49.688Z,6.78
2023-03-05T14:10:00.180Z,5.07
2023-03-05T14:12:38.059Z,10.23
2023-03-05T14:15:24.736Z,9.90
2023-03-05T14:18:21.352Z,5.78
2023-03-05T14:21:06.572Z,6.68
2023-03-05T14:23:43.228Z,7.35
2023-03-05T14:26:26.906Z,4.45
2023-03-05T14:29:02.461Z,5.38
2023-03-05T14:31:41.996Z,7.75
2023-03-05T14:34:25.077Z,5.10
2023-03-05T14:36:59.919Z,8.45
2023-03-05T14:39:35.234Z,6.03
2023-03-05T14:42:39.181Z,9.60
2023-03-05T14:45:17.452Z,8.20
2023-03-05T14:47:49.219Z,7.25
2023-03-05T14:50:22.744Z,7.13
2023-03-05T14:52:56.556Z,7.30
2023-03-05T14:55:32.017Z,4.30
2023-03-05T14:58:07.912Z,6.95
2023-03-05T15:00:41.795Z,5.32
2023-03-05T15:03:14.576Z,6.22
2023-03-05T15:05:51.133Z,4.68
2023-03-05T15:08:29.337Z,9.23
2023-03-05T15:11:03.671Z,11.18
2023-03-05T15:13:37.689Z,8.32
2023-03-05T15:16:10.865Z,7.22
2023-03-05T15:18:41.901Z,6.22
2023-03-05T15:21:14.724Z,7.97
2023-03-05T15:23:47.762Z,7.32
2023-03-05T15:26:19.234Z,7.70
2023-03-05T15:28:52.936Z,5.30
2023-03-05T15:31:25.026Z,7.05
2023-03-05T15:33:56.175Z,7.25
2023-03-05T15:36:27.800Z,6.70
2023-03-05T15:38:59.140Z,5.20
2023-03-05T15:41:30.795Z,4.95
2023-03-05T15:44:05.200Z,8.45
2023-03-05T15:46:38.485Z,8.95
2023-03-05T15:49:09.763Z,5.93
2023-03-05T15:51:41.531Z,9.07
2023-03-05T15:54:13.733Z,4.68
2023-03-05T15:56:45.570Z,7.43
2023-03-05T15:59:20.400Z,6.97
2023-03-05T16:01:54.733Z,6.88
2023-03-05T16:04:25.941Z,5.00
2023-03-05T16:06:59.165Z,7.43
2023-03-05T16:09:35.333Z,4.72
2023-03-05T16:12:10.465Z,8.00
2023-03-05T16:14:45.279Z,4.57
2023-03-05T16:17:18.431Z,7.47
2023-03-05T16:19:53.466Z,6.30
2023-03-05T16:22:25.082Z,7.60
2023-03-05T16:24:57.203Z,7.15
2023-03-05T16:27:29.312Z,9.05
2023-03-05T16:30:03.464Z,9.13
2023-03-05T16:32:35.965Z,8.02
2023-03-05T16:35:09.016Z,7.88
2023-03-05T16:37:41.859Z,9.00
2023-03-05T16:40:15.604Z,5.68
2023-03-05T16:42:47.733Z,9.82
2023-03-05T16:45:22.507Z,9.43
2023-03-05T16:47:54.956Z,8.65
2023-03-05T16:50:26.488Z,10.15
2023-03-05T16:52:58.536Z,11.43
2023-03-05T16:55:30.335Z,8.93
2023-03-05T16:58:02.357Z,5.95
2023-03-05T17:00:36.743Z,11.43
2023-03-05T17:03:08.937Z,10.52
2023-03-05T17:05:41.336Z,9.80
2023-03-05T17:08:13.308Z,8.13
2023-03-05T17:10:46.927Z,7.28
2023-03-05T17:13:18.957Z,9.77
2023-03-05T17:15:56.263Z,9.70
2023-03-05T17:18:29.760Z,5.60
2023-03-05T17:21:01.330Z,5.30
2023-03-05T17:23:33.624Z,10.30
2023-03-05T17:26:08.186Z,4.35
2023-03-05T17:28:40.931Z,7.75
2023-03-05T17:31:17.653Z,8.68
2023-03-05T17:33:51.212Z,11.45
2023-03-05T17:36:24.546Z,7.35
2023-03-05T17:38:57.108Z,8.15
2023-03-05T17:41:28.716Z,6.00
2023-03-05T17:44:00.592Z,7.38
2023-03-05T17:46:35.037Z,7.45
2023-03-05T17:49:07.263Z,12.13
2023-03-05T17:51:40.707Z,7.75
2023-03-05T17:54:12.548Z,8.23
2023-03-05T17:56:44.811Z,4.65
2023-03-05T17:59:16.850Z,9.52
2023-03-05T18:01:51.172Z,9.23
2023-03-05T18:04:23.228Z,7.68
2023-03-05T18:06:55.048Z,7.88
2023-03-05T18:09:27.566Z,8.90
2023-03-05T18:11:59.779Z,9.05
2023-03-05T18:14:31.743Z,6.85
2023-03-05T18:17:05.921Z,7.72
2023-03-05T18:19:38.099Z,10.23
2023-03-05T18:22:09.680Z,10.38
2023-03-05T18:24:41.702Z,14.57
2023-03-05T18:27:13.324Z,6.97
2023-03-05T18:29:45.406Z,10.23
2023-03-05T18:32:20.279Z,6.05
2023-03-05T18:34:52.372Z,7.93
2023-03-05T18:37:23.790Z,11.43
2023-03-05T18:39:58.227Z,10.13
2023-03-05T18:42:29.951Z,4.78
2023-03-05T18:45:02.425Z,5.18
2023-03-05T18:47:36.907Z,7.07
2023-03-05T18:50:10.822Z,8.18
2023-03-05T18:52:42.746Z,6.50
2023-03-05T18:55:19.904Z,6.15
2023-03-05T18:57:52.049Z,11.07
2023-03-05T19:00:27.152Z,10.70
2023-03-05T19:03:03.788Z,7.68
2023-03-05T19:05:36.331Z,7.43
2023-03-05T19:08:11.194Z,8.90
2023-03-05T19:10:43.621Z,8.55
2023-03-05T19:13:28.445Z,6.85
2023-03-05T19:16:01.214Z,7.47
2023-03-05T19:18:40.151Z,5.78
2023-03-05T19:21:11.924Z,5.93
2023-03-05T19:23:43.415Z,9.43
2023-03-05T19:26:15.181Z,6.07
2023-03-05T19:28:46.508Z,6.53
2023-03-05T19:31:19.045Z,6.70
2023-03-05T19:33:53.181Z,11.88
2023-03-05T19:36:25.357Z,7.78
2023-03-05T19:38:59.123Z,7.55
2023-03-05T19:41:30.752Z,9.60
2023-03-05T19:44:02.428Z,7.38
2023-03-05T19:50:00.314Z,5.35
2023-03-05T19:52:33.393Z,13.15
2023-03-05T19:55:05.242Z,9.13
2023-03-05T19:57:37.636Z,10.32
2023-03-05T20:00:11.391Z,7.90
2023-03-05T20:02:43.944Z,7.03
2023-03-05T20:05:18.965Z,5.47
2023-03-05T20:07:51.306Z,13.85
2023-03-05T20:10:23.485Z,10.13
2023-03-05T20:12:58.037Z,11.20
2023-03-05T20:15:30.616Z,9.40
2023-03-05T20:18:02.965Z,10.90
2023-03-05T20:20:45.115Z,10.68
2023-03-05T20:23:19.561Z,10.68
2023-03-05T20:26:12.780Z,12.15
2023-03-05T20:28:44.884Z,8.68
2023-03-05T20:31:16.125Z,10.75
2023-03-05T20:33:47.834Z,9.65
2023-03-05T20:36:22.403Z,7.60
2023-03-05T20:38:55.371Z,7.95
2023-03-05T20:41:27.240Z,9.60
2023-03-05T20:43:59.074Z,6.63
2023-03-05T20:46:32.768Z,9.20
2023-03-05T20:49:07.060Z,11.65
2023-03-05T20:51:41.316Z,8.98
2023-03-05T20:54:15.901Z,9.80
2023-03-05T20:56:48.157Z,9.05
2023-03-05T20:59:23.636Z,12.25
2023-03-05T21:01:55.108Z,8.35
2023-03-05T21:04:26.731Z,9.38
2023-03-05T21:07:00.556Z,11.00
2023-03-05T21:09:32.437Z,8.02
2023-03-05T21:12:04.285Z,8.13
2023-03-05T21:14:38.517Z,10.18
2023-03-05T21:17:10.981Z,7.18
2023-03-05T21:19:43.077Z,8.57
2023-03-05T21:22:17.214Z,10.70
2023-03-05T21:25:02.362Z,9.57
2023-03-05T21:27:34.010Z,9.98
2023-03-05T21:30:06.115Z,11.85
2023-03-05T21:32:37.469Z,15.40
2023-03-05T21:35:09.901Z,16.20
2023-03-05T21:37:44.640Z,12.02
2023-03-05T21:40:19.695Z,13.02
2023-03-05T21:42:51.141Z,14.18
2023-03-05T21:45:24.663Z,13.25
2023-03-05T21:47:56.298Z,14.77
2023-03-05T21:50:29.554Z,15.25
2023-03-05T21:53:04.544Z,11.77
2023-03-05T21:55:45.773Z,12.05
2023-03-05T21:58:18.831Z,11.00
2023-03-05T22:00:50.832Z,17.42
2023-03-05T22:03:22.637Z,14.38
2023-03-05T22:05:54.894Z,17.67
2023-03-05T22:08:29.933Z,14.43
2023-03-05T22:11:01.846Z,17.27
2023-03-05T22:13:33.776Z,20.88
2023-03-05T22:16:05.449Z,14.60
2023-03-05T22:18:37.270Z,16.88
2023-03-05T22:21:20.456Z,15.57
2023-03-05T22:23:57.349Z,20.08
2023-03-05T22:26:37.242Z,18.55
2023-03-05T22:29:13.360Z,15.35
2023-03-05T22:31:45.585Z,19.80
2023-03-05T22:34:17.347Z,19.30
2023-03-05T22:36:49.561Z,21.00
2023-03-05T22:39:23.781Z,21.50
2023-03-05T22:41:55.779Z,19.70
2023-03-05T22:44:27.442Z,17.15
2023-03-05T22:46:59.495Z,17.77
2023-03-05T22:49:30.884Z,20.05
2023-03-05T22:52:02.917Z,20.98
2023-03-05T22:54:37.204Z,21.30
2023-03-05T22:57:10.479Z,17.58
2023-03-05T22:59:42.074Z,18.45
2023-03-05T23:02:14.259Z,17.73
2023-03-05T23:04:53.483Z,12.90
2023-03-05T23:07:27.767Z,12.85
2023-03-05T23:10:04.202Z,13.57
2023-03-05T23:12:40.418Z,15.52
2023-03-05T23:15:15.724Z,15.52
2023-03-05T23:17:48.646Z,15.93
2023-03-05T23:20:22.489Z,17.52
2023-03-05T23:22:56.392Z,17.58
2023-03-05T23:25:33.690Z,18.35
2023-03-05T23:28:06.766Z,16.05
2023-03-05T23:30:40.866Z,18.35
2023-03-05T23:33:18.404Z,15.95
2023-03-05T23:35:55.303Z,13.00
2023-03-05T23:38:29.108Z,15.85
2023-03-05T23:41:04.040Z,14.80
2023-03-05T23:43:36.583Z,15.35
2023-03-05T23:46:14.175Z,20.42
2023-03-05T23:48:46.913Z,14.32
2023-03-05T23:51:19.456Z,16.13
2023-03-05T23:53:51.898Z,17.00
2023-03-05T23:56:26.821Z,18.60
2023-03-05T23:59:00.901Z,19.30
